sensor_id;sensor_type;location;lat;lon;timestamp;P1;durP1;ratioP1;P2;durP2;ratioP2
50605;SDS011;36557;53.572;10.170;2023-08-08T00:00:50;4.70;;;1.30;;
50605;SDS011;36557;53.572;10.170;2023-08-08T00:03:16;3.13;;;1.30;;
50605;SDS011;36557;53.572;10.170;2023-08-08T00:05:41;3.20;;;1.05;;
50605;SDS011;36557;53.572;10.170;2023-08-08T00:08:07;2.47;;;0.93;;
50605;SDS011;36557;53.572;10.170;2023-08-08T00:10:33;5.25;;;1.10;;
50605;SDS011;36557;53.572;10.170;2023-08-08T00:12:58;2.92;;;1.10;;
50605;SDS011;36557;53.572;10.170;2023-08-08T00:15:24;4.50;;;1.00;;
50605;SDS011;36557;53.572;10.170;2023-08-08T00:17:50;5.80;;;1.10;;
50605;SDS011;36557;53.572;10.170;2023-08-08T00:20:16;2.25;;;0.90;;
50605;SDS011;36557;53.572;10.170;2023-08-08T00:22:41;3.10;;;1.20;;
50605;SDS011;36557;53.572;10.170;2023-08-08T00:25:07;4.70;;;1.20;;
50605;SDS011;36557;53.572;10.170;2023-08-08T00:27:33;3.60;;;1.20;;
50605;SDS011;36557;53.572;10.170;2023-08-08T00:30:00;3.75;;;1.08;;
50605;SDS011;36557;53.572;10.170;2023-08-08T00:32:26;3.95;;;1.08;;
50605;SDS011;36557;53.572;10.170;2023-08-08T00:34:52;5.43;;;1.23;;
50605;SDS011;36557;53.572;10.170;2023-08-08T00:37:17;5.68;;;1.30;;
50605;SDS011;36557;53.572;10.170;2023-08-08T00:39:43;3.50;;;1.17;;
50605;SDS011;36557;53.572;10.170;2023-08-08T00:42:11;2.13;;;0.90;;
50605;SDS011;36557;53.572;10.170;2023-08-08T00:44:38;3.00;;;1.23;;
50605;SDS011;36557;53.572;10.170;2023-08-08T00:47:05;2.72;;;1.20;;
50605;SDS011;36557;53.572;10.170;2023-08-08T00:49:35;3.25;;;1.10;;
50605;SDS011;36557;53.572;10.170;2023-08-08T00:52:02;1.83;;;1.02;;
50605;SDS011;36557;53.572;10.170;2023-08-08T00:54:28;3.35;;;1.15;;
50605;SDS011;36557;53.572;10.170;2023-08-08T00:56:54;4.20;;;1.08;;
50605;SDS011;36557;53.572;10.170;2023-08-08T00:59:20;3.65;;;1.20;;
50605;SDS011;36557;53.572;10.170;2023-08-08T01:01:46;3.38;;;1.30;;
50605;SDS011;36557;53.572;10.170;2023-08-08T01:04:12;4.70;;;1.67;;
50605;SDS011;36557;53.572;10.170;2023-08-08T01:06:51;2.35;;;1.30;;
50605;SDS011;36557;53.572;10.170;2023-08-08T01:09:32;3.33;;;1.10;;
50605;SDS011;36557;53.572;10.170;2023-08-08T01:12:06;2.42;;;0.98;;
50605;SDS011;36557;53.572;10.170;2023-08-08T01:14:36;3.03;;;1.10;;
50605;SDS011;36557;53.572;10.170;2023-08-08T01:17:03;2.58;;;1.20;;
50605;SDS011;36557;53.572;10.170;2023-08-08T01:19:31;2.95;;;1.13;;
50605;SDS011;36557;53.572;10.170;2023-08-08T01:22:04;2.20;;;1.00;;
50605;SDS011;36557;53.572;10.170;2023-08-08T01:24:31;2.42;;;1.00;;
50605;SDS011;36557;53.572;10.170;2023-08-08T01:27:01;2.45;;;1.10;;
50605;SDS011;36557;53.572;10.170;2023-08-08T01:29:28;3.50;;;1.10;;
50605;SDS011;36557;53.572;10.170;2023-08-08T01:31:54;3.28;;;1.02;;
50605;SDS011;36557;53.572;10.170;2023-08-08T01:34:20;4.05;;;1.30;;
50605;SDS011;36557;53.572;10.170;2023-08-08T01:39:17;3.05;;;0.90;;
50605;SDS011;36557;53.572;10.170;2023-08-08T01:41:47;1.90;;;1.10;;
50605;SDS011;36557;53.572;10.170;2023-08-08T01:44:13;2.95;;;1.35;;
50605;SDS011;36557;53.572;10.170;2023-08-08T01:46:40;1.83;;;1.10;;
50605;SDS011;36557;53.572;10.170;2023-08-08T01:49:06;3.35;;;0.95;;
50605;SDS011;36557;53.572;10.170;2023-08-08T01:51:32;3.72;;;1.02;;
50605;SDS011;36557;53.572;10.170;2023-08-08T01:53:57;1.67;;;0.80;;
50605;SDS011;36557;53.572;10.170;2023-08-08T01:56:23;4.68;;;1.20;;
50605;SDS011;36557;53.572;10.170;2023-08-08T01:58:49;2.22;;;1.00;;
50605;SDS011;36557;53.572;10.170;2023-08-08T02:01:15;2.85;;;1.10;;
50605;SDS011;36557;53.572;10.170;2023-08-08T02:03:40;2.47;;;0.77;;
50605;SDS011;36557;53.572;10.170;2023-08-08T02:06:06;1.77;;;1.00;;
50605;SDS011;36557;53.572;10.170;2023-08-08T02:08:32;1.92;;;0.80;;
50605;SDS011;36557;53.572;10.170;2023-08-08T02:10:57;3.33;;;1.17;;
50605;SDS011;36557;53.572;10.170;2023-08-08T02:13:23;4.72;;;0.85;;
50605;SDS011;36557;53.572;10.170;2023-08-08T02:15:52;4.35;;;1.20;;
50605;SDS011;36557;53.572;10.170;2023-08-08T02:18:18;2.15;;;1.00;;
50605;SDS011;36557;53.572;10.170;2023-08-08T02:20:43;3.75;;;1.10;;
50605;SDS011;36557;53.572;10.170;2023-08-08T02:23:09;1.40;;;0.47;;
50605;SDS011;36557;53.572;10.170;2023-08-08T02:25:35;3.65;;;0.85;;
50605;SDS011;36557;53.572;10.170;2023-08-08T02:28:00;2.35;;;0.95;;
50605;SDS011;36557;53.572;10.170;2023-08-08T02:30:26;4.45;;;0.80;;
50605;SDS011;36557;53.572;10.170;2023-08-08T02:32:52;1.95;;;0.60;;
50605;SDS011;36557;53.572;10.170;2023-08-08T02:35:17;5.70;;;1.48;;
50605;SDS011;36557;53.572;10.170;2023-08-08T02:37:44;1.70;;;0.90;;
50605;SDS011;36557;53.572;10.170;2023-08-08T02:40:10;3.13;;;0.80;;
50605;SDS011;36557;53.572;10.170;2023-08-08T02:42:36;3.28;;;0.90;;
50605;SDS011;36557;53.572;10.170;2023-08-08T02:45:02;1.02;;;0.80;;
50605;SDS011;36557;53.572;10.170;2023-08-08T02:47:28;1.65;;;0.77;;
50605;SDS011;36557;53.572;10.170;2023-08-08T02:49:53;1.50;;;0.65;;
50605;SDS011;36557;53.572;10.170;2023-08-08T02:52:19;4.00;;;0.70;;
50605;SDS011;36557;53.572;10.170;2023-08-08T02:54:45;2.00;;;0.80;;
50605;SDS011;36557;53.572;10.170;2023-08-08T02:57:10;5.20;;;0.88;;
50605;SDS011;36557;53.572;10.170;2023-08-08T02:59:37;1.98;;;0.75;;
50605;SDS011;36557;53.572;10.170;2023-08-08T03:02:03;2.63;;;0.70;;
50605;SDS011;36557;53.572;10.170;2023-08-08T03:04:29;1.42;;;0.55;;
50605;SDS011;36557;53.572;10.170;2023-08-08T03:06:55;1.73;;;0.80;;
50605;SDS011;36557;53.572;10.170;2023-08-08T03:09:21;1.35;;;0.75;;
50605;SDS011;36557;53.572;10.170;2023-08-08T03:11:47;2.25;;;0.60;;
50605;SDS011;36557;53.572;10.170;2023-08-08T03:14:12;0.82;;;0.57;;
50605;SDS011;36557;53.572;10.170;2023-08-08T03:16:38;2.35;;;0.63;;
50605;SDS011;36557;53.572;10.170;2023-08-08T03:19:04;2.83;;;0.80;;
50605;SDS011;36557;53.572;10.170;2023-08-08T03:21:30;4.18;;;0.70;;
50605;SDS011;36557;53.572;10.170;2023-08-08T03:23:56;2.35;;;1.13;;
50605;SDS011;36557;53.572;10.170;2023-08-08T03:26:25;2.05;;;0.80;;
50605;SDS011;36557;53.572;10.170;2023-08-08T03:28:51;1.52;;;0.77;;
50605;SDS011;36557;53.572;10.170;2023-08-08T03:31:18;1.55;;;0.60;;
50605;SDS011;36557;53.572;10.170;2023-08-08T03:33:45;2.40;;;0.80;;
50605;SDS011;36557;53.572;10.170;2023-08-08T03:36:11;2.67;;;0.82;;
50605;SDS011;36557;53.572;10.170;2023-08-08T03:38:36;4.60;;;0.80;;
50605;SDS011;36557;53.572;10.170;2023-08-08T03:41:05;1.95;;;0.88;;
50605;SDS011;36557;53.572;10.170;2023-08-08T03:43:31;2.90;;;0.98;;
50605;SDS011;36557;53.572;10.170;2023-08-08T03:45:56;4.22;;;0.80;;
50605;SDS011;36557;53.572;10.170;2023-08-08T03:48:22;3.25;;;1.15;;
50605;SDS011;36557;53.572;10.170;2023-08-08T03:50:48;2.97;;;0.80;;
50605;SDS011;36557;53.572;10.170;2023-08-08T03:53:13;1.60;;;0.75;;
50605;SDS011;36557;53.572;10.170;2023-08-08T03:55:39;4.00;;;0.93;;
50605;SDS011;36557;53.572;10.170;2023-08-08T03:58:05;2.63;;;0.70;;
50605;SDS011;36557;53.572;10.170;2023-08-08T04:00:31;2.75;;;0.65;;
50605;SDS011;36557;53.572;10.170;2023-08-08T04:02:57;1.02;;;0.52;;
50605;SDS011;36557;53.572;10.170;2023-08-08T04:05:23;2.13;;;0.90;;
50605;SDS011;36557;53.572;10.170;2023-08-08T04:07:48;2.38;;;0.80;;
50605;SDS011;36557;53.572;10.170;2023-08-08T04:10:14;2.25;;;0.65;;
50605;SDS011;36557;53.572;10.170;2023-08-08T04:12:40;1.52;;;0.73;;
50605;SDS011;36557;53.572;10.170;2023-08-08T04:15:06;1.70;;;0.70;;
50605;SDS011;36557;53.572;10.170;2023-08-08T04:17:32;1.33;;;0.70;;
50605;SDS011;36557;53.572;10.170;2023-08-08T04:19:58;3.22;;;1.02;;
50605;SDS011;36557;53.572;10.170;2023-08-08T04:22:24;2.35;;;0.82;;
50605;SDS011;36557;53.572;10.170;2023-08-08T04:24:49;1.88;;;0.80;;
50605;SDS011;36557;53.572;10.170;2023-08-08T04:27:15;2.47;;;0.70;;
50605;SDS011;36557;53.572;10.170;2023-08-08T04:29:43;2.97;;;0.75;;
50605;SDS011;36557;53.572;10.170;2023-08-08T04:32:09;1.77;;;0.70;;
50605;SDS011;36557;53.572;10.170;2023-08-08T04:34:35;4.00;;;0.90;;
50605;SDS011;36557;53.572;10.170;2023-08-08T04:37:00;4.55;;;0.80;;
50605;SDS011;36557;53.572;10.170;2023-08-08T04:39:26;4.05;;;1.00;;
50605;SDS011;36557;53.572;10.170;2023-08-08T04:41:52;3.80;;;0.90;;
50605;SDS011;36557;53.572;10.170;2023-08-08T04:44:18;2.80;;;1.00;;
50605;SDS011;36557;53.572;10.170;2023-08-08T04:46:43;1.73;;;0.68;;
50605;SDS011;36557;53.572;10.170;2023-08-08T04:49:09;2.58;;;0.70;;
50605;SDS011;36557;53.572;10.170;2023-08-08T04:51:35;1.52;;;0.80;;
50605;SDS011;36557;53.572;10.170;2023-08-08T04:54:00;2.88;;;0.90;;
50605;SDS011;36557;53.572;10.170;2023-08-08T04:56:26;2.00;;;0.73;;
50605;SDS011;36557;53.572;10.170;2023-08-08T04:58:53;2.97;;;0.85;;
50605;SDS011;36557;53.572;10.170;2023-08-08T05:01:19;1.00;;;0.75;;
50605;SDS011;36557;53.572;10.170;2023-08-08T05:03:45;4.32;;;1.17;;
50605;SDS011;36557;53.572;10.170;2023-08-08T05:06:11;1.65;;;0.80;;
50605;SDS011;36557;53.572;10.170;2023-08-08T05:08:37;2.00;;;0.77;;
50605;SDS011;36557;53.572;10.170;2023-08-08T05:11:03;1.30;;;0.60;;
50605;SDS011;36557;53.572;10.170;2023-08-08T05:13:28;3.65;;;0.80;;
50605;SDS011;36557;53.572;10.170;2023-08-08T05:15:54;1.05;;;0.57;;
50605;SDS011;36557;53.572;10.170;2023-08-08T05:18:20;1.10;;;0.60;;
50605;SDS011;36557;53.572;10.170;2023-08-08T05:20:45;2.78;;;0.98;;
50605;SDS011;36557;53.572;10.170;2023-08-08T05:23:11;1.83;;;0.82;;
50605;SDS011;36557;53.572;10.170;2023-08-08T05:25:37;1.27;;;0.55;;
50605;SDS011;36557;53.572;10.170;2023-08-08T05:28:02;1.83;;;0.60;;
50605;SDS011;36557;53.572;10.170;2023-08-08T05:30:28;4.53;;;0.90;;
50605;SDS011;36557;53.572;10.170;2023-08-08T05:32:54;2.13;;;0.77;;
50605;SDS011;36557;53.572;10.170;2023-08-08T05:35:20;2.42;;;0.90;;
50605;SDS011;36557;53.572;10.170;2023-08-08T05:37:45;1.33;;;0.93;;
50605;SDS011;36557;53.572;10.170;2023-08-08T05:40:11;2.97;;;0.88;;
50605;SDS011;36557;53.572;10.170;2023-08-08T05:42:37;2.17;;;0.90;;
50605;SDS011;36557;53.572;10.170;2023-08-08T05:45:04;2.53;;;0.70;;
50605;SDS011;36557;53.572;10.170;2023-08-08T05:47:30;5.43;;;0.60;;
50605;SDS011;36557;53.572;10.170;2023-08-08T05:49:55;1.23;;;0.65;;
50605;SDS011;36557;53.572;10.170;2023-08-08T05:52:21;2.40;;;0.55;;
50605;SDS011;36557;53.572;10.170;2023-08-08T05:54:47;2.13;;;0.60;;
50605;SDS011;36557;53.572;10.170;2023-08-08T05:57:13;2.78;;;0.80;;
50605;SDS011;36557;53.572;10.170;2023-08-08T05:59:38;2.55;;;0.88;;
50605;SDS011;36557;53.572;10.170;2023-08-08T06:02:04;2.85;;;0.50;;
50605;SDS011;36557;53.572;10.170;2023-08-08T06:04:30;1.13;;;0.60;;
50605;SDS011;36557;53.572;10.170;2023-08-08T06:06:56;3.58;;;0.63;;
50605;SDS011;36557;53.572;10.170;2023-08-08T06:09:22;1.27;;;0.60;;
50605;SDS011;36557;53.572;10.170;2023-08-08T06:11:48;3.38;;;0.70;;
50605;SDS011;36557;53.572;10.170;2023-08-08T06:14:14;3.30;;;0.80;;
50605;SDS011;36557;53.572;10.170;2023-08-08T06:16:39;2.08;;;0.73;;
50605;SDS011;36557;53.572;10.170;2023-08-08T06:19:06;3.35;;;1.02;;
50605;SDS011;36557;53.572;10.170;2023-08-08T06:21:32;3.03;;;0.70;;
50605;SDS011;36557;53.572;10.170;2023-08-08T06:23:57;1.90;;;0.85;;
50605;SDS011;36557;53.572;10.170;2023-08-08T06:26:23;0.77;;;0.52;;
50605;SDS011;36557;53.572;10.170;2023-08-08T06:28:49;2.08;;;0.55;;
50605;SDS011;36557;53.572;10.170;2023-08-08T06:31:16;2.28;;;0.90;;
50605;SDS011;36557;53.572;10.170;2023-08-08T06:33:43;2.05;;;0.65;;
50605;SDS011;36557;53.572;10.170;2023-08-08T06:36:08;2.90;;;0.82;;
50605;SDS011;36557;53.572;10.170;2023-08-08T06:38:34;3.67;;;0.68;;
50605;SDS011;36557;53.572;10.170;2023-08-08T06:41:00;2.53;;;1.02;;
50605;SDS011;36557;53.572;10.170;2023-08-08T06:43:27;1.75;;;1.00;;
50605;SDS011;36557;53.572;10.170;2023-08-08T06:45:56;3.28;;;1.00;;
50605;SDS011;36557;53.572;10.170;2023-08-08T06:48:22;3.75;;;0.90;;
50605;SDS011;36557;53.572;10.170;2023-08-08T06:50:48;2.72;;;0.95;;
50605;SDS011;36557;53.572;10.170;2023-08-08T06:53:14;3.75;;;1.50;;
50605;SDS011;36557;53.572;10.170;2023-08-08T06:55:39;1.98;;;1.30;;
50605;SDS011;36557;53.572;10.170;2023-08-08T06:58:05;3.75;;;1.48;;
50605;SDS011;36557;53.572;10.170;2023-08-08T07:00:31;3.25;;;1.05;;
50605;SDS011;36557;53.572;10.170;2023-08-08T07:02:56;10.10;;;4.07;;
50605;SDS011;36557;53.572;10.170;2023-08-08T07:05:22;10.80;;;4.82;;
50605;SDS011;36557;53.572;10.170;2023-08-08T07:07:49;3.63;;;1.15;;
50605;SDS011;36557;53.572;10.170;2023-08-08T07:10:15;4.13;;;1.30;;
50605;SDS011;36557;53.572;10.170;2023-08-08T07:12:41;4.07;;;1.25;;
50605;SDS011;36557;53.572;10.170;2023-08-08T07:15:07;3.20;;;1.17;;
50605;SDS011;36557;53.572;10.170;2023-08-08T07:17:33;3.83;;;1.20;;
50605;SDS011;36557;53.572;10.170;2023-08-08T07:19:59;2.63;;;1.35;;
50605;SDS011;36557;53.572;10.170;2023-08-08T07:22:25;4.20;;;1.00;;
50605;SDS011;36557;53.572;10.170;2023-08-08T07:24:51;2.33;;;1.08;;
50605;SDS011;36557;53.572;10.170;2023-08-08T07:27:16;3.53;;;1.42;;
50605;SDS011;36557;53.572;10.170;2023-08-08T07:29:42;4.53;;;1.80;;
50605;SDS011;36557;53.572;10.170;2023-08-08T07:32:08;4.00;;;1.33;;
50605;SDS011;36557;53.572;10.170;2023-08-08T07:34:34;2.80;;;1.40;;
50605;SDS011;36557;53.572;10.170;2023-08-08T07:37:00;3.70;;;1.30;;
50605;SDS011;36557;53.572;10.170;2023-08-08T07:39:26;4.30;;;1.10;;
50605;SDS011;36557;53.572;10.170;2023-08-08T07:41:51;2.95;;;1.15;;
50605;SDS011;36557;53.572;10.170;2023-08-08T07:44:18;4.10;;;1.17;;
50605;SDS011;36557;53.572;10.170;2023-08-08T07:46:43;2.72;;;1.02;;
50605;SDS011;36557;53.572;10.170;2023-08-08T07:49:09;2.53;;;0.90;;
50605;SDS011;36557;53.572;10.170;2023-08-08T07:51:35;3.20;;;0.90;;
50605;SDS011;36557;53.572;10.170;2023-08-08T07:54:01;1.10;;;0.70;;
50605;SDS011;36557;53.572;10.170;2023-08-08T07:56:27;5.05;;;0.80;;
50605;SDS011;36557;53.572;10.170;2023-08-08T07:58:53;2.22;;;0.68;;
50605;SDS011;36557;53.572;10.170;2023-08-08T08:01:19;5.47;;;0.80;;
50605;SDS011;36557;53.572;10.170;2023-08-08T08:03:45;2.42;;;0.88;;
50605;SDS011;36557;53.572;10.170;2023-08-08T08:06:11;2.30;;;0.73;;
50605;SDS011;36557;53.572;10.170;2023-08-08T08:08:37;1.85;;;0.82;;
50605;SDS011;36557;53.572;10.170;2023-08-08T08:11:02;3.83;;;0.85;;
50605;SDS011;36557;53.572;10.170;2023-08-08T08:13:28;2.25;;;0.70;;
50605;SDS011;36557;53.572;10.170;2023-08-08T08:15:54;3.35;;;1.13;;
50605;SDS011;36557;53.572;10.170;2023-08-08T08:18:19;3.60;;;1.00;;
50605;SDS011;36557;53.572;10.170;2023-08-08T08:20:45;3.22;;;1.10;;
50605;SDS011;36557;53.572;10.170;2023-08-08T08:23:12;1.83;;;0.82;;
50605;SDS011;36557;53.572;10.170;2023-08-08T08:25:38;3.33;;;0.90;;
50605;SDS011;36557;53.572;10.170;2023-08-08T08:28:04;3.65;;;0.70;;
50605;SDS011;36557;53.572;10.170;2023-08-08T08:30:29;3.25;;;1.00;;
50605;SDS011;36557;53.572;10.170;2023-08-08T08:32:55;2.78;;;0.70;;
50605;SDS011;36557;53.572;10.170;2023-08-08T08:35:25;2.03;;;0.80;;
50605;SDS011;36557;53.572;10.170;2023-08-08T08:37:51;4.68;;;0.90;;
50605;SDS011;36557;53.572;10.170;2023-08-08T08:40:19;1.85;;;0.80;;
50605;SDS011;36557;53.572;10.170;2023-08-08T08:42:45;1.50;;;0.57;;
50605;SDS011;36557;53.572;10.170;2023-08-08T08:45:12;2.33;;;1.05;;
50605;SDS011;36557;53.572;10.170;2023-08-08T08:47:41;2.08;;;0.50;;
50605;SDS011;36557;53.572;10.170;2023-08-08T08:50:11;0.65;;;0.40;;
50605;SDS011;36557;53.572;10.170;2023-08-08T08:52:39;2.65;;;0.70;;
50605;SDS011;36557;53.572;10.170;2023-08-08T08:55:05;1.55;;;0.90;;
50605;SDS011;36557;53.572;10.170;2023-08-08T08:57:32;1.08;;;0.60;;
50605;SDS011;36557;53.572;10.170;2023-08-08T08:59:58;1.83;;;0.60;;
50605;SDS011;36557;53.572;10.170;2023-08-08T09:02:24;2.83;;;0.57;;
50605;SDS011;36557;53.572;10.170;2023-08-08T09:04:50;2.22;;;0.60;;
50605;SDS011;36557;53.572;10.170;2023-08-08T09:07:16;2.65;;;0.57;;
50605;SDS011;36557;53.572;10.170;2023-08-08T09:09:45;0.98;;;0.50;;
50605;SDS011;36557;53.572;10.170;2023-08-08T09:12:11;2.10;;;0.45;;
50605;SDS011;36557;53.572;10.170;2023-08-08T09:14:40;2.17;;;0.80;;
50605;SDS011;36557;53.572;10.170;2023-08-08T09:17:12;4.78;;;0.60;;
50605;SDS011;36557;53.572;10.170;2023-08-08T09:19:42;2.25;;;0.50;;
50605;SDS011;36557;53.572;10.170;2023-08-08T09:22:09;6.03;;;0.63;;
50605;SDS011;36557;53.572;10.170;2023-08-08T09:24:39;2.47;;;0.70;;
50605;SDS011;36557;53.572;10.170;2023-08-08T09:27:06;0.80;;;0.52;;
50605;SDS011;36557;53.572;10.170;2023-08-08T09:29:32;3.42;;;0.60;;
50605;SDS011;36557;53.572;10.170;2023-08-08T09:31:58;1.30;;;0.55;;
50605;SDS011;36557;53.572;10.170;2023-08-08T09:34:24;1.70;;;0.40;;
50605;SDS011;36557;53.572;10.170;2023-08-08T09:36:51;2.47;;;0.50;;
50605;SDS011;36557;53.572;10.170;2023-08-08T09:39:17;2.25;;;0.50;;
50605;SDS011;36557;53.572;10.170;2023-08-08T09:41:45;1.10;;;0.50;;
50605;SDS011;36557;53.572;10.170;2023-08-08T09:44:12;3.65;;;0.60;;
50605;SDS011;36557;53.572;10.170;2023-08-08T09:46:38;1.55;;;0.50;;
50605;SDS011;36557;53.572;10.170;2023-08-08T09:49:05;2.58;;;0.82;;
50605;SDS011;36557;53.572;10.170;2023-08-08T09:51:31;2.95;;;0.60;;
50605;SDS011;36557;53.572;10.170;2023-08-08T09:53:58;2.17;;;0.50;;
50605;SDS011;36557;53.572;10.170;2023-08-08T09:56:25;2.30;;;0.63;;
50605;SDS011;36557;53.572;10.170;2023-08-08T09:58:52;3.55;;;0.77;;
50605;SDS011;36557;53.572;10.170;2023-08-08T10:01:19;3.58;;;0.50;;
50605;SDS011;36557;53.572;10.170;2023-08-08T10:03:45;2.53;;;0.50;;
50605;SDS011;36557;53.572;10.170;2023-08-08T10:06:12;4.15;;;0.60;;
50605;SDS011;36557;53.572;10.170;2023-08-08T10:08:38;2.45;;;0.65;;
50605;SDS011;36557;53.572;10.170;2023-08-08T10:11:05;2.83;;;0.70;;
50605;SDS011;36557;53.572;10.170;2023-08-08T10:13:35;2.55;;;0.50;;
50605;SDS011;36557;53.572;10.170;2023-08-08T10:16:08;0.90;;;0.50;;
50605;SDS011;36557;53.572;10.170;2023-08-08T10:18:34;3.53;;;0.80;;
50605;SDS011;36557;53.572;10.170;2023-08-08T10:21:00;2.00;;;0.70;;
50605;SDS011;36557;53.572;10.170;2023-08-08T10:23:34;1.20;;;0.70;;
50605;SDS011;36557;53.572;10.170;2023-08-08T10:26:02;3.88;;;0.82;;
50605;SDS011;36557;53.572;10.170;2023-08-08T10:28:28;1.55;;;0.80;;
50605;SDS011;36557;53.572;10.170;2023-08-08T10:30:57;3.35;;;1.00;;
50605;SDS011;36557;53.572;10.170;2023-08-08T10:33:28;3.53;;;1.10;;
50605;SDS011;36557;53.572;10.170;2023-08-08T10:36:05;2.75;;;0.80;;
50605;SDS011;36557;53.572;10.170;2023-08-08T10:38:39;1.77;;;0.63;;
50605;SDS011;36557;53.572;10.170;2023-08-08T10:41:12;4.43;;;0.88;;
50605;SDS011;36557;53.572;10.170;2023-08-08T10:43:47;1.00;;;0.60;;
50605;SDS011;36557;53.572;10.170;2023-08-08T10:46:28;2.33;;;0.50;;
50605;SDS011;36557;53.572;10.170;2023-08-08T10:49:01;2.90;;;0.60;;
50605;SDS011;36557;53.572;10.170;2023-08-08T10:51:40;1.95;;;0.50;;
50605;SDS011;36557;53.572;10.170;2023-08-08T10:54:15;1.95;;;0.88;;
50605;SDS011;36557;53.572;10.170;2023-08-08T10:56:49;1.90;;;0.70;;
50605;SDS011;36557;53.572;10.170;2023-08-08T10:59:23;2.53;;;0.60;;
50605;SDS011;36557;53.572;10.170;2023-08-08T11:02:00;1.73;;;0.70;;
50605;SDS011;36557;53.572;10.170;2023-08-08T11:04:27;3.10;;;0.60;;
50605;SDS011;36557;53.572;10.170;2023-08-08T11:06:54;1.88;;;0.43;;
50605;SDS011;36557;53.572;10.170;2023-08-08T11:09:20;1.02;;;0.35;;
50605;SDS011;36557;53.572;10.170;2023-08-08T11:11:46;1.52;;;0.50;;
50605;SDS011;36557;53.572;10.170;2023-08-08T11:14:12;1.95;;;0.63;;
50605;SDS011;36557;53.572;10.170;2023-08-08T11:16:41;2.08;;;0.80;;
50605;SDS011;36557;53.572;10.170;2023-08-08T11:19:08;1.73;;;0.60;;
50605;SDS011;36557;53.572;10.170;2023-08-08T11:21:35;1.00;;;0.47;;
50605;SDS011;36557;53.572;10.170;2023-08-08T11:24:02;1.90;;;0.60;;
50605;SDS011;36557;53.572;10.170;2023-08-08T11:26:29;1.13;;;0.60;;
50605;SDS011;36557;53.572;10.170;2023-08-08T11:28:59;1.77;;;0.60;;
50605;SDS011;36557;53.572;10.170;2023-08-08T11:31:26;2.78;;;0.80;;
50605;SDS011;36557;53.572;10.170;2023-08-08T11:33:55;3.15;;;0.70;;
50605;SDS011;36557;53.572;10.170;2023-08-08T11:36:22;3.40;;;0.43;;
50605;SDS011;36557;53.572;10.170;2023-08-08T11:38:49;1.27;;;0.52;;
50605;SDS011;36557;53.572;10.170;2023-08-08T11:41:16;1.67;;;0.50;;
50605;SDS011;36557;53.572;10.170;2023-08-08T11:43:43;2.10;;;0.50;;
50605;SDS011;36557;53.572;10.170;2023-08-08T11:46:13;2.30;;;0.60;;
50605;SDS011;36557;53.572;10.170;2023-08-08T11:48:39;1.05;;;0.60;;
50605;SDS011;36557;53.572;10.170;2023-08-08T11:51:05;1.77;;;0.50;;
50605;SDS011;36557;53.572;10.170;2023-08-08T11:53:32;1.75;;;0.35;;
50605;SDS011;36557;53.572;10.170;2023-08-08T11:56:01;1.08;;;0.30;;
50605;SDS011;36557;53.572;10.170;2023-08-08T11:58:28;2.95;;;0.70;;
50605;SDS011;36557;53.572;10.170;2023-08-08T12:00:58;0.82;;;0.43;;
50605;SDS011;36557;53.572;10.170;2023-08-08T12:03:25;1.10;;;0.50;;
50605;SDS011;36557;53.572;10.170;2023-08-08T12:05:51;1.63;;;0.50;;
50605;SDS011;36557;53.572;10.170;2023-08-08T12:08:20;1.60;;;0.40;;
50605;SDS011;36557;53.572;10.170;2023-08-08T12:10:49;1.40;;;0.55;;
50605;SDS011;36557;53.572;10.170;2023-08-08T12:13:21;5.97;;;0.82;;
50605;SDS011;36557;53.572;10.170;2023-08-08T12:15:48;1.45;;;0.70;;
50605;SDS011;36557;53.572;10.170;2023-08-08T12:18:17;2.22;;;0.90;;
50605;SDS011;36557;53.572;10.170;2023-08-08T12:20:43;2.67;;;1.20;;
50605;SDS011;36557;53.572;10.170;2023-08-08T12:23:09;2.15;;;0.65;;
50605;SDS011;36557;53.572;10.170;2023-08-08T12:25:35;2.10;;;0.80;;
50605;SDS011;36557;53.572;10.170;2023-08-08T12:28:02;2.85;;;0.88;;
50605;SDS011;36557;53.572;10.170;2023-08-08T12:30:27;2.35;;;0.70;;
50605;SDS011;36557;53.572;10.170;2023-08-08T12:32:53;1.92;;;0.65;;
50605;SDS011;36557;53.572;10.170;2023-08-08T12:35:19;1.40;;;0.60;;
50605;SDS011;36557;53.572;10.170;2023-08-08T12:37:45;3.13;;;0.70;;
50605;SDS011;36557;53.572;10.170;2023-08-08T12:40:12;3.35;;;0.75;;
50605;SDS011;36557;53.572;10.170;2023-08-08T12:42:37;2.40;;;0.60;;
50605;SDS011;36557;53.572;10.170;2023-08-08T12:45:04;2.78;;;0.90;;
50605;SDS011;36557;53.572;10.170;2023-08-08T12:47:30;1.80;;;0.70;;
50605;SDS011;36557;53.572;10.170;2023-08-08T12:49:56;2.83;;;0.90;;
50605;SDS011;36557;53.572;10.170;2023-08-08T12:52:22;1.73;;;0.65;;
50605;SDS011;36557;53.572;10.170;2023-08-08T12:54:48;3.97;;;0.80;;
50605;SDS011;36557;53.572;10.170;2023-08-08T12:57:14;3.70;;;0.63;;
50605;SDS011;36557;53.572;10.170;2023-08-08T12:59:40;1.77;;;0.80;;
50605;SDS011;36557;53.572;10.170;2023-08-08T13:02:07;3.05;;;0.70;;
50605;SDS011;36557;53.572;10.170;2023-08-08T13:04:33;3.40;;;0.70;;
50605;SDS011;36557;53.572;10.170;2023-08-08T13:06:59;2.78;;;1.00;;
50605;SDS011;36557;53.572;10.170;2023-08-08T13:09:25;2.42;;;0.70;;
50605;SDS011;36557;53.572;10.170;2023-08-08T13:11:50;1.88;;;0.60;;
50605;SDS011;36557;53.572;10.170;2023-08-08T13:14:16;2.45;;;0.82;;
50605;SDS011;36557;53.572;10.170;2023-08-08T13:16:42;1.48;;;0.52;;
50605;SDS011;36557;53.572;10.170;2023-08-08T13:19:08;2.20;;;0.65;;
50605;SDS011;36557;53.572;10.170;2023-08-08T13:21:34;1.52;;;0.55;;
50605;SDS011;36557;53.572;10.170;2023-08-08T13:23:59;3.28;;;1.10;;
50605;SDS011;36557;53.572;10.170;2023-08-08T13:26:25;4.28;;;0.85;;
50605;SDS011;36557;53.572;10.170;2023-08-08T13:28:51;2.30;;;0.80;;
50605;SDS011;36557;53.572;10.170;2023-08-08T13:31:16;1.85;;;0.75;;
50605;SDS011;36557;53.572;10.170;2023-08-08T13:33:42;6.53;;;1.10;;
50605;SDS011;36557;53.572;10.170;2023-08-08T13:36:08;4.65;;;0.90;;
50605;SDS011;36557;53.572;10.170;2023-08-08T13:38:34;2.28;;;0.90;;
50605;SDS011;36557;53.572;10.170;2023-08-08T13:41:00;3.25;;;0.90;;
50605;SDS011;36557;53.572;10.170;2023-08-08T13:43:26;4.82;;;0.82;;
50605;SDS011;36557;53.572;10.170;2023-08-08T13:45:52;4.70;;;0.80;;
50605;SDS011;36557;53.572;10.170;2023-08-08T13:48:17;4.18;;;0.95;;
50605;SDS011;36557;53.572;10.170;2023-08-08T13:50:43;3.42;;;1.02;;
50605;SDS011;36557;53.572;10.170;2023-08-08T13:53:09;1.88;;;0.88;;
50605;SDS011;36557;53.572;10.170;2023-08-08T13:55:35;6.22;;;0.93;;
50605;SDS011;36557;53.572;10.170;2023-08-08T13:58:05;5.13;;;0.90;;
50605;SDS011;36557;53.572;10.170;2023-08-08T14:00:31;3.60;;;0.90;;
50605;SDS011;36557;53.572;10.170;2023-08-08T14:02:57;3.85;;;0.80;;
50605;SDS011;36557;53.572;10.170;2023-08-08T14:05:24;1.15;;;0.55;;
50605;SDS011;36557;53.572;10.170;2023-08-08T14:07:49;4.10;;;0.98;;
50605;SDS011;36557;53.572;10.170;2023-08-08T14:10:15;2.30;;;0.75;;
50605;SDS011;36557;53.572;10.170;2023-08-08T14:12:41;2.20;;;0.52;;
50605;SDS011;36557;53.572;10.170;2023-08-08T14:15:07;1.52;;;0.60;;
50605;SDS011;36557;53.572;10.170;2023-08-08T14:17:34;1.92;;;0.77;;
50605;SDS011;36557;53.572;10.170;2023-08-08T14:20:00;1.95;;;0.47;;
50605;SDS011;36557;53.572;10.170;2023-08-08T14:22:26;4.22;;;0.77;;
50605;SDS011;36557;53.572;10.170;2023-08-08T14:24:52;2.75;;;0.60;;
50605;SDS011;36557;53.572;10.170;2023-08-08T14:27:17;1.42;;;0.63;;
50605;SDS011;36557;53.572;10.170;2023-08-08T14:29:43;3.42;;;0.57;;
50605;SDS011;36557;53.572;10.170;2023-08-08T14:32:09;4.35;;;0.75;;